Aviation Digital Data Service (ADDS)

Output produced by METARs form (2208 UTC 16 February 2019)
found at http://www.aviationweather.gov/metar/data/
 
Forecast for: KEYW (KEY WEST , FL, US)
Text: KEYW 161736Z 1618/1718 19009KT P6SM FEW025
Forecast period: 1800 UTC 16 February 2019 to 0000 UTC 17 February 2019
Forecast type: FROM: standard forecast or significant change
Winds: from the S (190 degrees) at 10 MPH (9 knots; 4.6 m/s)
Visibility: 6 or more miles 10+ km)
Ceiling: at least 12,000 feet AGL
Clouds: few clouds at 2500 feet AGL
Weather: no significant weather forecast for this period
Text: FM170000 VRB05KT P6SM SKC
Forecast period: 0000 to 1000 UTC 17 February 2019
Forecast type: FROM: standard forecast or significant change
Winds: variable direction winds at 6 MPH (5 knots; 2.6 m/s)
Visibility: 6 or more miles 10+ km)
Clouds: clear skies
Weather: no significant weather forecast for this period
Text: FM171000 15010KT P6SM FEW010
Forecast period: 1000 to 1800 UTC 17 February 2019
Forecast type: FROM: standard forecast or significant change
Winds: from the SSE (150 degrees) at 12 MPH (10 knots; 5.1 m/s)
Visibility: 6 or more miles 10+ km)
Ceiling: at least 12,000 feet AGL
Clouds: few clouds at 1000 feet AGL
Weather: no significant weather forecast for this period